createdAt,value
2018-09-05T00:02:24.351Z,8.93
2018-09-05T00:04:52.635Z,8.58
2018-09-05T00:07:20.936Z,8.60
2018-09-05T00:09:49.178Z,8.83
2018-09-05T00:12:17.461Z,8.37
2018-09-05T00:14:45.731Z,7.90
2018-09-05T00:17:14.042Z,8.60
2018-09-05T00:19:42.327Z,10.00
2018-09-05T00:22:10.623Z,8.03
2018-09-05T00:24:39.305Z,7.75
2018-09-05T00:27:07.582Z,8.30
2018-09-05T00:29:35.838Z,8.20
2018-09-05T00:32:04.214Z,8.00
2018-09-05T00:34:32.482Z,8.67
2018-09-05T00:37:00.774Z,8.17
2018-09-05T00:39:29.054Z,8.87
2018-09-05T00:41:57.347Z,9.00
2018-09-05T00:44:25.614Z,8.78
2018-09-05T00:46:53.917Z,9.07
2018-09-05T00:49:22.163Z,8.93
2018-09-05T00:51:50.459Z,8.50
2018-09-05T00:54:18.709Z,8.83
2018-09-05T00:56:47.019Z,8.33
2018-09-05T00:59:15.331Z,8.30
2018-09-05T01:01:43.588Z,8.30
2018-09-05T01:04:11.929Z,9.17
2018-09-05T01:06:40.218Z,8.73
2018-09-05T01:09:08.992Z,8.47
2018-09-05T01:11:37.434Z,7.70
2018-09-05T01:14:05.949Z,8.60
2018-09-05T01:16:34.282Z,7.57
2018-09-05T01:19:02.622Z,7.77
2018-09-05T01:21:31.042Z,9.60
2018-09-05T01:23:59.325Z,7.77
2018-09-05T01:26:27.611Z,8.28
2018-09-05T01:28:55.937Z,7.80
2018-09-05T01:31:24.347Z,8.03
2018-09-05T01:33:52.631Z,7.90
2018-09-05T01:36:20.931Z,8.40
2018-09-05T01:38:49.269Z,8.17
2018-09-05T01:41:17.533Z,7.50
2018-09-05T01:43:46.598Z,8.00
2018-09-05T01:46:14.869Z,7.67
2018-09-05T01:48:43.151Z,7.37
2018-09-05T01:51:11.545Z,8.37
2018-09-05T01:53:39.838Z,7.13
2018-09-05T01:56:08.158Z,8.40
2018-09-05T01:58:36.464Z,8.40
2018-09-05T02:01:04.913Z,8.30
2018-09-05T02:03:33.256Z,8.27
2018-09-05T02:06:01.543Z,7.87
2018-09-05T02:08:29.924Z,8.17
2018-09-05T02:10:58.167Z,7.80
2018-09-05T02:13:26.545Z,7.60
2018-09-05T02:15:54.805Z,8.37
2018-09-05T02:18:23.215Z,8.93
2018-09-05T02:20:51.498Z,7.57
2018-09-05T02:23:19.836Z,8.30
2018-09-05T02:25:48.118Z,7.43
2018-09-05T02:28:16.497Z,7.80
2018-09-05T02:30:44.767Z,7.97
2018-09-05T02:33:13.121Z,7.97
2018-09-05T02:35:41.482Z,7.50
2018-09-05T02:38:09.841Z,8.70
2018-09-05T02:40:38.240Z,7.83
2018-09-05T02:43:06.858Z,8.17
2018-09-05T02:45:35.130Z,7.47
2018-09-05T02:48:03.425Z,8.03
2018-09-05T02:50:31.694Z,7.30
2018-09-05T02:53:00.014Z,7.87
2018-09-05T02:55:33.698Z,8.00
2018-09-05T02:58:02.024Z,7.37
2018-09-05T03:00:30.321Z,7.00
2018-09-05T03:02:58.670Z,7.30
2018-09-05T03:05:26.956Z,7.60
2018-09-05T03:07:55.302Z,7.60
2018-09-05T03:10:23.634Z,7.17
2018-09-05T03:12:52.514Z,8.00
2018-09-05T03:15:20.834Z,7.60
2018-09-05T03:17:49.143Z,8.00
2018-09-05T03:20:17.441Z,8.07
2018-09-05T03:22:45.767Z,7.23
2018-09-05T03:25:14.058Z,7.20
2018-09-05T03:27:42.318Z,7.60
2018-09-05T03:30:10.899Z,7.30
2018-09-05T03:32:39.411Z,7.63
2018-09-05T03:35:07.763Z,7.30
2018-09-05T03:37:36.057Z,7.77
2018-09-05T03:40:04.426Z,7.30
2018-09-05T03:42:32.694Z,7.97
2018-09-05T03:45:01.050Z,6.90
2018-09-05T03:47:29.610Z,7.55
2018-09-05T03:49:57.998Z,7.20
2018-09-05T03:52:26.533Z,7.30
2018-09-05T03:54:55.795Z,7.17
2018-09-05T03:57:24.097Z,7.40
2018-09-05T03:59:52.526Z,8.20
2018-09-05T04:02:20.855Z,7.90
2018-09-05T04:04:49.156Z,7.37
2018-09-05T04:07:17.447Z,7.23
2018-09-05T04:09:45.755Z,7.60
2018-09-05T04:12:14.094Z,7.80
2018-09-05T04:14:42.346Z,7.77
2018-09-05T04:17:10.650Z,7.60
2018-09-05T04:19:38.957Z,7.70
2018-09-05T04:22:07.336Z,7.43
2018-09-05T04:24:35.606Z,7.00
2018-09-05T04:27:03.927Z,6.90
2018-09-05T04:29:32.251Z,7.70
2018-09-05T04:32:00.541Z,8.00
2018-09-05T04:34:28.818Z,8.10
2018-09-05T04:36:57.092Z,8.13
2018-09-05T04:39:25.495Z,8.17
2018-09-05T04:41:53.803Z,7.50
2018-09-05T04:44:22.118Z,8.00
2018-09-05T04:46:50.415Z,7.47
2018-09-05T04:49:18.749Z,7.77
2018-09-05T04:51:47.057Z,8.30
2018-09-05T04:54:15.341Z,6.93
2018-09-05T04:56:43.662Z,7.80
2018-09-05T04:59:12.014Z,6.83
2018-09-05T05:01:40.278Z,7.90
2018-09-05T05:04:08.599Z,8.03
2018-09-05T05:06:36.958Z,7.97
2018-09-05T05:09:08.363Z,7.80
2018-09-05T05:11:36.670Z,7.53
2018-09-05T05:14:05.045Z,7.17
2018-09-05T05:16:33.403Z,6.00
2018-09-05T05:19:01.674Z,7.10
2018-09-05T05:21:29.991Z,7.47
2018-09-05T05:23:58.328Z,7.00
2018-09-05T05:26:56.037Z,8.00
2018-09-05T05:29:24.321Z,7.87
2018-09-05T05:31:52.635Z,7.87
2018-09-05T05:34:20.970Z,7.53
2018-09-05T05:36:49.299Z,8.40
2018-09-05T05:39:17.594Z,8.50
2018-09-05T05:41:45.939Z,9.10
2018-09-05T05:44:14.225Z,8.50
2018-09-05T05:46:42.576Z,8.75
2018-09-05T05:49:10.883Z,8.13
2018-09-05T05:51:39.266Z,8.67
2018-09-05T05:54:14.094Z,8.80
2018-09-05T05:56:42.431Z,9.70
2018-09-05T05:59:10.714Z,9.90
2018-09-05T06:01:39.055Z,10.33
2018-09-05T06:04:07.417Z,10.13
2018-09-05T06:06:35.732Z,10.50
2018-09-05T06:09:05.669Z,10.00
2018-09-05T06:11:33.980Z,10.23
2018-09-05T06:14:02.290Z,10.10
2018-09-05T06:16:30.582Z,10.20
2018-09-05T06:18:58.914Z,10.17
2018-09-05T06:21:27.230Z,10.70
2018-09-05T06:23:55.603Z,10.93
2018-09-05T06:26:23.875Z,10.23
2018-09-05T06:28:52.179Z,10.70
2018-09-05T06:31:20.860Z,10.10
2018-09-05T06:33:48.973Z,10.43
2018-09-05T06:36:17.299Z,10.07
2018-09-05T06:38:45.589Z,10.33
2018-09-05T06:41:13.887Z,10.20
2018-09-05T06:43:42.172Z,10.57
2018-09-05T06:46:10.519Z,10.20
2018-09-05T06:48:38.925Z,11.30
2018-09-05T06:51:08.462Z,10.90
2018-09-05T06:53:38.949Z,10.70
2018-09-05T06:56:08.245Z,10.70
2018-09-05T06:58:37.018Z,10.60
2018-09-05T07:01:05.359Z,9.97
2018-09-05T07:03:33.790Z,9.93
2018-09-05T07:06:02.104Z,11.40
2018-09-05T07:08:30.475Z,9.63
2018-09-05T07:10:58.812Z,9.70
2018-09-05T07:13:27.250Z,10.40
2018-09-05T07:15:55.610Z,10.60
2018-09-05T07:18:23.950Z,10.50
2018-09-05T07:20:52.250Z,10.50
2018-09-05T07:23:20.540Z,11.00
2018-09-05T07:25:49.222Z,10.27
2018-09-05T07:28:17.522Z,10.10
2018-09-05T07:30:45.871Z,11.00
2018-09-05T07:33:14.162Z,10.63
2018-09-05T07:35:42.566Z,10.50
2018-09-05T07:38:10.942Z,10.60
2018-09-05T07:40:39.268Z,10.37
2018-09-05T07:43:07.571Z,9.87
2018-09-05T07:45:35.847Z,9.80
2018-09-05T07:48:04.466Z,10.90
2018-09-05T07:50:33.107Z,12.03
2018-09-05T07:53:01.484Z,10.57
2018-09-05T07:55:29.778Z,9.35
2018-09-05T07:57:58.203Z,10.10
2018-09-05T08:00:26.522Z,10.37
2018-09-05T08:02:54.885Z,10.63
2018-09-05T08:05:23.188Z,9.85
2018-09-05T08:07:51.519Z,10.77
2018-09-05T08:10:19.795Z,9.53
2018-09-05T08:12:48.081Z,10.47
2018-09-05T08:15:16.386Z,10.30
2018-09-05T08:17:44.803Z,10.73
2018-09-05T08:20:13.113Z,9.23
2018-09-05T08:22:41.642Z,9.50
2018-09-05T08:25:09.933Z,10.60
2018-09-05T08:27:38.247Z,10.50
2018-09-05T08:30:06.764Z,10.00
2018-09-05T08:32:35.167Z,10.23
2018-09-05T08:35:03.603Z,10.00
2018-09-05T08:37:32.059Z,10.33
2018-09-05T08:40:00.119Z,9.45
2018-09-05T08:42:32.599Z,10.27
2018-09-05T08:45:01.597Z,9.77
2018-09-05T08:47:30.181Z,11.13
2018-09-05T08:49:58.930Z,10.90
2018-09-05T08:52:27.266Z,11.35
2018-09-05T08:54:55.648Z,11.57
2018-09-05T08:57:24.051Z,12.20
2018-09-05T08:59:52.372Z,10.90
2018-09-05T09:02:20.651Z,10.87
2018-09-05T09:04:49.023Z,10.97
2018-09-05T09:07:17.329Z,10.83
2018-09-05T09:09:45.615Z,10.17
2018-09-05T09:12:13.882Z,10.40
2018-09-05T09:14:42.227Z,10.23
2018-09-05T09:17:10.519Z,11.07
2018-09-05T09:19:38.862Z,10.13
2018-09-05T09:22:07.243Z,10.00
2018-09-05T09:24:35.689Z,9.63
2018-09-05T09:27:04.029Z,10.23
2018-09-05T09:29:32.379Z,10.67
2018-09-05T09:32:00.753Z,10.30
2018-09-05T09:34:29.139Z,10.60
2018-09-05T09:36:57.638Z,9.93
2018-09-05T09:39:25.958Z,9.87
2018-09-05T09:41:54.231Z,10.80
2018-09-05T09:44:22.524Z,9.50
2018-09-05T09:46:50.890Z,10.03
2018-09-05T09:49:19.482Z,10.20
2018-09-05T09:51:47.831Z,10.93
2018-09-05T09:54:16.115Z,9.40
2018-09-05T09:56:44.510Z,9.77
2018-09-05T09:59:12.850Z,10.00
2018-09-05T10:03:47.601Z,10.40
2018-09-05T10:06:25.951Z,10.00
2018-09-05T10:08:59.723Z,8.90
2018-09-05T10:11:33.195Z,10.20
2018-09-05T10:14:06.946Z,9.90
2018-09-05T10:16:41.151Z,9.77
2018-09-05T10:19:11.118Z,8.73
2018-09-05T10:21:39.511Z,9.30
2018-09-05T10:24:07.830Z,9.33
2018-09-05T10:26:36.219Z,9.47
2018-09-05T10:29:04.570Z,10.17
2018-09-05T10:31:32.891Z,9.57
2018-09-05T10:34:01.183Z,10.18
2018-09-05T10:36:29.474Z,8.97
2018-09-05T10:38:57.773Z,8.87
2018-09-05T10:41:26.078Z,9.47
2018-09-05T10:43:54.424Z,9.80
2018-09-05T10:46:22.934Z,9.53
2018-09-05T10:48:51.232Z,9.80
2018-09-05T10:51:23.746Z,9.80
2018-09-05T10:53:52.078Z,10.17
2018-09-05T10:56:20.361Z,9.17
2018-09-05T10:58:48.714Z,9.67
2018-09-05T11:01:17.074Z,9.67
2018-09-05T11:03:45.746Z,10.03
2018-09-05T11:06:14.049Z,10.10
2018-09-05T11:08:42.359Z,9.97
2018-09-05T11:11:10.701Z,9.60
2018-09-05T11:13:39.026Z,9.03
2018-09-05T11:16:07.318Z,9.60
2018-09-05T11:18:35.594Z,10.08
2018-09-05T11:21:03.919Z,9.90
2018-09-05T11:23:32.191Z,10.20
2018-09-05T11:26:00.597Z,9.67
2018-09-05T11:28:28.894Z,10.00
2018-09-05T11:30:57.178Z,9.47
2018-09-05T11:33:26.335Z,9.87
2018-09-05T11:35:54.629Z,9.87
2018-09-05T11:38:22.919Z,9.30
2018-09-05T11:40:51.242Z,11.30
2018-09-05T11:43:19.676Z,11.00
2018-09-05T11:45:48.002Z,10.10
2018-09-05T11:48:16.390Z,11.30
2018-09-05T11:50:44.734Z,10.50
2018-09-05T11:53:13.115Z,11.00
2018-09-05T11:55:41.413Z,10.37
2018-09-05T11:58:09.690Z,10.77
2018-09-05T12:00:38.011Z,10.57
2018-09-05T12:03:06.323Z,11.60
2018-09-05T12:05:34.623Z,11.90
2018-09-05T12:08:02.985Z,10.60
2018-09-05T12:10:31.368Z,10.43
2018-09-05T12:13:00.439Z,10.93
2018-09-05T12:15:29.484Z,11.80
2018-09-05T12:17:57.762Z,12.83
2018-09-05T12:20:26.123Z,12.33
2018-09-05T12:22:54.424Z,12.07
2018-09-05T12:25:22.838Z,11.23
2018-09-05T12:27:51.179Z,11.27
2018-09-05T12:30:19.486Z,11.57
2018-09-05T12:32:47.869Z,12.67
2018-09-05T12:35:16.399Z,11.60
2018-09-05T12:37:44.819Z,11.63
2018-09-05T12:40:13.407Z,10.68
2018-09-05T12:42:41.708Z,11.67
2018-09-05T12:45:10.367Z,9.90
2018-09-05T12:47:38.748Z,10.83
2018-09-05T12:50:07.095Z,11.00
2018-09-05T12:52:35.373Z,10.50
2018-09-05T12:55:03.693Z,10.80
2018-09-05T12:57:32.497Z,10.77
2018-09-05T13:00:00.839Z,11.53
2018-09-05T13:02:29.384Z,10.90
2018-09-05T13:04:57.700Z,11.00
2018-09-05T13:07:26.025Z,10.13
2018-09-05T13:09:54.562Z,10.67
2018-09-05T13:12:23.170Z,9.47
2018-09-05T13:14:51.578Z,9.70
2018-09-05T13:17:20.122Z,9.97
2018-09-05T13:19:48.421Z,10.23
2018-09-05T13:22:16.724Z,10.17
2018-09-05T13:24:45.074Z,9.83
2018-09-05T13:27:13.402Z,10.20
2018-09-05T13:29:41.714Z,9.10
2018-09-05T13:32:10.266Z,9.47
2018-09-05T13:34:38.572Z,10.20
2018-09-05T13:37:06.897Z,9.37
2018-09-05T13:39:36.122Z,9.73
2018-09-05T13:42:04.649Z,9.20
2018-09-05T13:44:32.930Z,8.80
2018-09-05T13:47:01.315Z,8.50
2018-09-05T13:49:29.854Z,8.30
2018-09-05T13:52:04.090Z,8.50
2018-09-05T13:54:33.359Z,9.10
2018-09-05T13:57:01.807Z,9.83
2018-09-05T13:59:30.775Z,9.53
2018-09-05T14:01:59.126Z,9.33
2018-09-05T14:04:27.394Z,9.67
2018-09-05T14:06:55.876Z,8.90
2018-09-05T14:09:24.150Z,9.60
2018-09-05T14:11:52.470Z,9.87
2018-09-05T14:14:20.761Z,9.75
2018-09-05T14:16:49.145Z,10.60
2018-09-05T14:19:17.447Z,10.80
2018-09-05T14:21:46.010Z,9.67
2018-09-05T14:24:14.312Z,10.13
2018-09-05T14:26:42.786Z,10.13
2018-09-05T14:29:11.133Z,10.37
2018-09-05T14:31:39.868Z,10.10
2018-09-05T14:34:08.149Z,9.43
2018-09-05T14:36:36.514Z,9.73
2018-09-05T14:39:07.643Z,9.13
2018-09-05T14:41:36.131Z,10.00
2018-09-05T14:44:04.463Z,10.37
2018-09-05T14:46:32.806Z,10.30
2018-09-05T14:49:01.146Z,10.93
2018-09-05T14:51:29.783Z,10.27
2018-09-05T14:53:58.193Z,10.10
2018-09-05T14:56:26.603Z,10.27
2018-09-05T14:58:55.083Z,9.63
2018-09-05T15:01:23.521Z,10.37
2018-09-05T15:03:52.018Z,10.70
2018-09-05T15:06:20.444Z,10.20
2018-09-05T15:08:48.746Z,10.90
2018-09-05T15:11:17.309Z,10.33
2018-09-05T15:13:45.675Z,10.87
2018-09-05T15:16:14.009Z,10.70
2018-09-05T15:18:42.494Z,11.03
2018-09-05T15:21:11.014Z,10.53
2018-09-05T15:23:39.342Z,11.80
2018-09-05T15:26:07.909Z,10.80
2018-09-05T15:28:36.226Z,10.37
2018-09-05T15:31:04.691Z,10.50
2018-09-05T15:33:33.042Z,10.07
2018-09-05T15:36:01.428Z,10.20
2018-09-05T15:38:29.710Z,9.87
2018-09-05T15:40:57.999Z,10.40
2018-09-05T15:43:26.353Z,10.20
2018-09-05T15:45:54.791Z,10.32
2018-09-05T15:48:23.254Z,10.15
2018-09-05T15:50:51.723Z,10.13
2018-09-05T15:53:20.035Z,10.33
2018-09-05T15:55:48.338Z,11.27
2018-09-05T15:58:16.727Z,10.27
2018-09-05T16:00:45.042Z,10.33
2018-09-05T16:03:13.346Z,10.20
2018-09-05T16:05:41.648Z,10.37
2018-09-05T16:08:09.982Z,9.67
2018-09-05T16:10:38.965Z,9.60
2018-09-05T16:13:07.427Z,9.60
2018-09-05T16:15:35.826Z,10.30
2018-09-05T16:18:04.214Z,10.27
2018-09-05T16:20:32.815Z,9.20
2018-09-05T16:23:01.119Z,9.75
2018-09-05T16:25:29.439Z,9.37
2018-09-05T16:27:57.847Z,11.30
2018-09-05T16:30:26.359Z,10.43
2018-09-05T16:32:54.921Z,10.30
2018-09-05T16:35:23.310Z,10.20
2018-09-05T16:37:51.586Z,9.37
2018-09-05T16:40:19.862Z,9.80
2018-09-05T16:42:48.163Z,9.70
2018-09-05T16:45:16.603Z,9.47
2018-09-05T16:47:44.914Z,8.80
2018-09-05T16:50:13.278Z,9.40
2018-09-05T16:52:41.828Z,9.60
2018-09-05T16:55:10.122Z,9.43
2018-09-05T16:57:38.417Z,10.15
2018-09-05T17:00:06.980Z,9.97
2018-09-05T17:02:35.386Z,10.20
2018-09-05T17:05:03.715Z,9.60
2018-09-05T17:07:32.074Z,10.30
2018-09-05T17:10:00.482Z,10.23
2018-09-05T17:12:28.798Z,9.20
2018-09-05T17:14:57.241Z,9.57
2018-09-05T17:17:25.546Z,9.57
2018-09-05T17:19:53.955Z,9.33
2018-09-05T17:22:22.954Z,9.53
2018-09-05T17:24:51.292Z,10.47
2018-09-05T17:27:19.695Z,8.80
2018-09-05T17:29:48.162Z,9.97
2018-09-05T17:32:16.449Z,9.60
2018-09-05T17:34:44.871Z,8.90
2018-09-05T17:37:13.278Z,9.40
2018-09-05T17:39:41.555Z,8.90
2018-09-05T17:42:09.850Z,10.10
2018-09-05T17:44:38.150Z,9.30
2018-09-05T17:47:06.491Z,9.60
2018-09-05T17:49:34.863Z,9.47
2018-09-05T17:52:03.233Z,9.50
2018-09-05T17:54:31.550Z,9.60
2018-09-05T17:56:59.831Z,9.43
2018-09-05T17:59:28.285Z,9.43
2018-09-05T18:01:56.714Z,9.20
2018-09-05T18:04:25.863Z,10.07
2018-09-05T18:06:54.270Z,9.40
2018-09-05T18:09:22.649Z,9.60
2018-09-05T18:11:50.955Z,9.57
2018-09-05T18:14:19.302Z,10.00
2018-09-05T18:16:47.842Z,8.60
2018-09-05T18:19:16.299Z,10.23
2018-09-05T18:21:44.638Z,9.80
2018-09-05T18:24:13.079Z,10.03
2018-09-05T18:26:41.399Z,10.30
2018-09-05T18:29:09.987Z,9.60
2018-09-05T18:31:38.394Z,9.38
2018-09-05T18:34:06.759Z,9.27
2018-09-05T18:36:35.066Z,9.87
2018-09-05T18:39:03.507Z,9.70
2018-09-05T18:41:31.783Z,9.90
2018-09-05T18:44:00.202Z,9.70
2018-09-05T18:46:28.770Z,9.50
2018-09-05T18:48:57.213Z,8.33
2018-09-05T18:51:25.485Z,9.80
2018-09-05T18:53:53.843Z,8.50
2018-09-05T18:56:22.418Z,9.00
2018-09-05T18:58:50.737Z,8.83
2018-09-05T19:01:19.078Z,8.53
2018-09-05T19:03:47.410Z,9.27
2018-09-05T19:06:15.705Z,8.93
2018-09-05T19:08:44.010Z,8.97
2018-09-05T19:11:12.322Z,9.17
2018-09-05T19:13:40.590Z,8.70
2018-09-05T19:16:08.977Z,7.93
2018-09-05T19:18:37.283Z,8.40
2018-09-05T19:21:05.721Z,8.63
2018-09-05T19:23:34.502Z,8.50
2018-09-05T19:26:02.885Z,8.80
2018-09-05T19:28:32.215Z,8.23
2018-09-05T19:31:00.510Z,9.17
2018-09-05T19:33:28.803Z,7.87
2018-09-05T19:35:57.082Z,9.13
2018-09-05T19:38:25.430Z,8.40
2018-09-05T19:40:53.834Z,8.23
2018-09-05T19:43:22.093Z,8.03
2018-09-05T19:45:50.378Z,8.20
2018-09-05T19:48:18.694Z,9.80
2018-09-05T19:50:47.074Z,8.13
2018-09-05T19:53:15.363Z,8.87
2018-09-05T19:55:43.674Z,8.60
2018-09-05T19:58:11.949Z,8.60
2018-09-05T20:00:40.269Z,8.30
2018-09-05T20:03:08.578Z,8.00
2018-09-05T20:05:36.990Z,8.80
2018-09-05T20:08:05.614Z,8.20
2018-09-05T20:10:33.962Z,9.17
2018-09-05T20:13:02.278Z,8.60
2018-09-05T20:15:30.791Z,7.97
2018-09-05T20:17:59.093Z,8.97
2018-09-05T20:20:27.382Z,9.07
2018-09-05T20:22:55.833Z,8.07
2018-09-05T20:25:24.210Z,8.83
2018-09-05T20:27:52.750Z,9.20
2018-09-05T20:30:21.150Z,7.63
2018-09-05T20:32:49.467Z,7.97
2018-09-05T20:35:17.783Z,8.85
2018-09-05T20:37:46.074Z,8.40
2018-09-05T20:40:14.376Z,8.47
2018-09-05T20:42:42.678Z,8.60
2018-09-05T20:45:11.481Z,8.53
2018-09-05T20:47:39.745Z,8.50
2018-09-05T20:50:08.044Z,9.03
2018-09-05T20:52:36.391Z,8.63
2018-09-05T20:55:04.686Z,7.87
2018-09-05T20:57:32.978Z,7.57
2018-09-05T21:00:01.316Z,8.00
2018-09-05T21:02:29.741Z,9.07
2018-09-05T21:04:58.081Z,8.40
2018-09-05T21:07:26.418Z,7.50
2018-09-05T21:09:54.698Z,7.60
2018-09-05T21:12:22.994Z,8.40
2018-09-05T21:14:51.330Z,8.83
2018-09-05T21:17:19.634Z,8.60
2018-09-05T21:19:47.938Z,7.97
2018-09-05T21:22:17.393Z,7.00
2018-09-05T21:24:45.695Z,8.20
2018-09-05T21:27:13.970Z,8.50
2018-09-05T21:29:42.262Z,8.37
2018-09-05T21:32:10.541Z,7.97
2018-09-05T21:34:38.994Z,8.30
2018-09-05T21:37:07.366Z,7.90
2018-09-05T21:39:35.666Z,8.50
2018-09-05T21:42:03.947Z,8.83
2018-09-05T21:44:32.238Z,7.73
2018-09-05T21:47:00.602Z,8.43
2018-09-05T21:49:28.902Z,8.17
2018-09-05T21:51:57.230Z,7.53
2018-09-05T21:54:25.706Z,8.10
2018-09-05T21:56:54.062Z,7.67
2018-09-05T21:59:22.363Z,8.00
2018-09-05T22:01:50.741Z,8.00
2018-09-05T22:04:19.030Z,8.40
2018-09-05T22:06:47.330Z,7.50
2018-09-05T22:09:15.599Z,8.00
2018-09-05T22:11:43.934Z,8.73
2018-09-05T22:14:12.218Z,7.20
2018-09-05T22:16:40.537Z,8.30
2018-09-05T22:19:08.819Z,7.93
2018-09-05T22:21:37.101Z,8.00
2018-09-05T22:24:05.370Z,8.17
2018-09-05T22:26:33.655Z,7.92
2018-09-05T22:29:01.930Z,7.87
2018-09-05T22:31:30.314Z,8.00
2018-09-05T22:33:58.597Z,8.10
2018-09-05T22:36:26.907Z,8.03
2018-09-05T22:38:55.198Z,8.00
2018-09-05T22:41:23.478Z,7.37
2018-09-05T22:44:02.986Z,8.00
2018-09-05T22:46:42.395Z,6.67
2018-09-05T22:53:33.059Z,7.67
2018-09-05T22:56:21.531Z,7.33
2018-09-05T22:58:59.255Z,7.73
2018-09-05T23:02:13.948Z,7.23
2018-09-05T23:04:53.979Z,7.60
2018-09-05T23:07:32.155Z,8.00
2018-09-05T23:10:11.675Z,8.10
2018-09-05T23:12:51.203Z,7.50
2018-09-05T23:17:36.408Z,7.80
2018-09-05T23:20:14.643Z,8.10
2018-09-05T23:22:54.102Z,7.87
2018-09-05T23:25:22.371Z,8.50
2018-09-05T23:27:51.455Z,8.00
2018-09-05T23:30:19.731Z,9.20
2018-09-05T23:32:48.039Z,8.10
2018-09-05T23:35:16.391Z,8.13
2018-09-05T23:37:44.671Z,8.27
2018-09-05T23:40:13.019Z,8.80
2018-09-05T23:42:41.307Z,8.93
2018-09-05T23:45:09.607Z,8.37
2018-09-05T23:47:37.930Z,7.73
2018-09-05T23:50:06.562Z,7.57
2018-09-05T23:52:34.859Z,7.70
2018-09-05T23:55:03.146Z,7.97
2018-09-05T23:57:31.504Z,8.70
2018-09-05T23:59:59.790Z,7.90
